WetterOnline ( https://www.wetteronline.at )

Wetter aktuell Freiburg

Aktuelles Wetter: Freiburg/Flugplatz (236m)

6-stündlich | Neueste Meldungen
Ortszeit Temperatur Wetter
Di, 10.12. 7:00 1.5° C bedeckt
Di, 10.12. 1:00 5.5° C bewölkt
Mo, 09.12. 19:00 7.0° C bedeckt
Mo, 09.12. 13:00 7.8° C Sprühregen
Mo, 09.12. 7:00 8.6° C bewölkt
Mo, 09.12. 1:00 9.8° C Regen
So, 08.12. 19:00 11.0° C bewölkt
So, 08.12. 13:00 12.9° C bewölkt
Ortszeit Temperatur Wetter
Di, 10.12. 12:00 5.4° C wolkenlos
Di, 10.12. 11:50 5.4° C wolkenlos
Di, 10.12. 11:40 5.3° C wolkenlos
Di, 10.12. 11:30 5.3° C leicht bewölkt
Di, 10.12. 11:20 5.3° C leicht bewölkt
Di, 10.12. 11:10 4.9° C wolkig
Di, 10.12. 11:00 3.9° C bewölkt
Di, 10.12. 10:30 4.5° C bedeckt
Di, 10.12. 10:00 3.3° C bewölkt
Di, 10.12. 9:30 2.8° C bewölkt
Di, 10.12. 9:00 1.2° C bewölkt
Di, 10.12. 8:30 1.3° C wolkenlos
Ortszeit Relative Feuchte Sichtweite
Di, 10.12. 7:00 95% 20 km
Di, 10.12. 1:00 79% 60 km
Mo, 09.12. 19:00 78% 70 km
Mo, 09.12. 13:00 74% 70 km
Mo, 09.12. 7:00 66% 70 km
Mo, 09.12. 1:00 81% 3.1 km
So, 08.12. 19:00 72% 70 km
So, 08.12. 13:00 59% 70 km
Ortszeit Relative Feuchte Sichtweite
Di, 10.12. 12:00 73% 27 km
Di, 10.12. 11:50 73% -
Di, 10.12. 11:40 74% -
Di, 10.12. 11:30 74% 28 km
Di, 10.12. 11:20 74% -
Di, 10.12. 11:10 74% -
Di, 10.12. 11:00 77% 30 km
Di, 10.12. 10:30 76% 30 km
Di, 10.12. 10:00 84% 28 km
Di, 10.12. 9:30 87% 29 km
Di, 10.12. 9:00 92% 20 km
Di, 10.12. 8:30 94% 22 km
Ortszeit Niederschlagsmenge Niederschlagsart
Di, 10.12. 7:00 2 l/m2 in 12 Std. -
Di, 10.12. 1:00 2 l/m2 in 6 Std. Regen
Mo, 09.12. 19:00 1 l/m2 in 12 Std. Regen
Mo, 09.12. 13:00 0.1 l/m2 in 6 Std. Regen
Mo, 09.12. 7:00 0.8 l/m2 in 12 Std. Regen
Mo, 09.12. 1:00 0.3 l/m2 in 6 Std. Regen
So, 08.12. 19:00 0.3 l/m2 in 12 Std. Regen
So, 08.12. 13:00 0.0 l/m2 in 6 Std. -
Ortszeit Niederschlagsmenge Niederschlagsart
Di, 10.12. 12:00 0.0 l/m2 in 1 Std. -
Di, 10.12. 11:50 keine Meldung -
Di, 10.12. 11:40 keine Meldung -
Di, 10.12. 11:30 0.0 l/m2 in 1 Std. -
Di, 10.12. 11:20 keine Meldung -
Di, 10.12. 11:10 keine Meldung -
Di, 10.12. 11:00 0.0 l/m2 in 1 Std. -
Di, 10.12. 10:30 0.0 l/m2 in 1 Std. -
Di, 10.12. 10:00 0.0 l/m2 in 1 Std. -
Di, 10.12. 9:30 0.0 l/m2 in 1 Std. -
Di, 10.12. 9:00 0.0 l/m2 in 1 Std. -
Di, 10.12. 8:30 0.0 l/m2 in 1 Std. -
Ortszeit Stärke Spitze Richtung
km/h Bft. km/h Grad Sektor
Di, 10.12. 7:00 0 0 29 - -
Di, 10.12. 1:00 13 3 39 330° NW
Mo, 09.12. 19:00 7 2 50 270° W
Mo, 09.12. 13:00 30 5 61 220° SW
Mo, 09.12. 7:00 31 5 57 210° SW
Mo, 09.12. 1:00 29 5 61 230° SW
So, 08.12. 19:00 14 3 54 230° SW
So, 08.12. 13:00 30 5 56 210° SW
Ortszeit Stärke Spitze Richtung
km/h Bft. km/h Grad Sektor
Di, 10.12. 12:00 11 2 22 240° SW
Di, 10.12. 11:50 11 2 - 240° SW
Di, 10.12. 11:40 11 2 - 240° SW
Di, 10.12. 11:30 4 1 11 230° SW
Di, 10.12. 11:20 4 1 - 230° SW
Di, 10.12. 11:10 4 1 - 230° SW
Di, 10.12. 11:00 7 2 11 260° W
Di, 10.12. 10:30 4 1 7 180° S
Di, 10.12. 10:00 4 1 11 220° SW
Di, 10.12. 9:30 7 2 9 150° SO
Di, 10.12. 9:00 2 1 4 200° S
Di, 10.12. 8:30 4 1 4 350° N
Ortszeit Untergrenze Bedeckung Gattung
total tief tief mittel hoch
Di, 10.12. 7:00 1800 m 8/8 8/8 - - -
Di, 10.12. 1:00 840 m 7/8 7/8 - - -
Mo, 09.12. 19:00 870 m 8/8 8/8 - - -
Mo, 09.12. 13:00 630 m 7/8 7/8 - - -
Mo, 09.12. 7:00 840 m 7/8 7/8 - - -
Mo, 09.12. 1:00 720 m 7/8 7/8 - - -
So, 08.12. 19:00 900 m 7/8 8/8 - - -
So, 08.12. 13:00 1050 m 7/8 7/8 - - -
Ortszeit Bedeckungsgrad in Achtel und Wolkenuntergrenze
Di, 10.12. 12:00 keine Wolken
Di, 10.12. 11:50 keine Wolken
Di, 10.12. 11:40 keine Wolken
Di, 10.12. 11:30 2(1500m) 3(9000m)
Di, 10.12. 11:20 2(1500m) 3(9000m)
Di, 10.12. 11:10 5(1500m)
Di, 10.12. 11:00 7(1500m)
Di, 10.12. 10:30 3(990m) 5(1320m) 8(1500m)
Di, 10.12. 10:00 7(1320m)
Di, 10.12. 9:30 2(960m) 8(1230m) 5(1440m)
Di, 10.12. 9:00 4(930m) 7(1230m)
Di, 10.12. 8:30 1(1230m)
Ortszeit Luftdruck NN (hPa) Tendenz (hPa in 3 Std.)
Di, 10.12. 7:00 1029 + 2,7
Di, 10.12. 1:00 1022 + 5,3
Mo, 09.12. 19:00 1012 + 5,2
Mo, 09.12. 13:00 1007 - 0,7
Mo, 09.12. 7:00 1008 - 1,2
Mo, 09.12. 1:00 1010 + 0,5
So, 08.12. 19:00 1010 - 1,9
So, 08.12. 13:00 1014 - 2,2
Ortszeit Luftdruck NN (hPa) Tendenz (hPa in 3 Std.)
Di, 10.12. 12:00 1030 + 0,6
Di, 10.12. 11:50 1030 keine Meldung
Di, 10.12. 11:40 1030 keine Meldung
Di, 10.12. 11:30 1031 + 1,2
Di, 10.12. 11:20 1031 keine Meldung
Di, 10.12. 11:10 1031 keine Meldung
Di, 10.12. 11:00 1031 + 1,6
Di, 10.12. 10:30 1030 + 1,3
Di, 10.12. 10:00 1030 + 1,6
Di, 10.12. 9:30 1030 + 1,3
Di, 10.12. 9:00 1030 + 2,0
Di, 10.12. 8:30 1030 + 1,8
Ortszeit Schneehöhe (cm)
Di, 10.12. 7:00 0
Di, 10.12. 1:00 0
Mo, 09.12. 19:00 0
Mo, 09.12. 13:00 0
Mo, 09.12. 7:00 0
Mo, 09.12. 1:00 0
So, 08.12. 19:00 0
So, 08.12. 13:00 0
Ortszeit Schneehöhe (cm)
Di, 10.12. 12:00 0
Di, 10.12. 11:50 0
Di, 10.12. 11:40 0
Di, 10.12. 11:30 0
Di, 10.12. 11:20 0
Di, 10.12. 11:10 0
Di, 10.12. 11:00 0
Di, 10.12. 10:30 0
Di, 10.12. 10:00 0
Di, 10.12. 9:30 0
Di, 10.12. 9:00 0
Di, 10.12. 8:30 0
Link zu dieser Seite / Seite empfehlen

Das Wetter in ...